首页
METAR-TAF:

METAR-TAF

机场 :

L.F.韋德國際機場

百慕大, 百慕大

纬度: 32-22N, 经度: 064-41W, 海拔: 6米

当前天气观测

该预报发布于28分钟前的01:33 UTC
风速15节,风向北转西北
温度 23°C
湿度 78%
气压 1012 hPa
能见度10公里或以上
阴天层高于2200英尺
附近有阵雨

METAR: TXKF 220133Z 33015KT 9999 VCSH OVC022 23/19 Q1012

时间: 23:01 (02:01 UTC)

预报

该预报发布于2小时和20分钟前的23:41 UTC
预报有效从22日的 00点(UTC)到 22日的 24点(UTC)
风速15节,风向西转西北
能见度10公里或以上
多云层高于2000英尺
几率 30% :
短暂存在
从 22日的 00点(UTC)到 22日的 02点(UTC)
风速22节,风向西北
小阵雨
成为
从 22日的 01点(UTC)到 22日的 03点(UTC)
风速18节,风向北转西北
成为
从 22日的 12点(UTC)到 22日的 14点(UTC)
风速15节,风向北转东北

TAF: TXKF 212341Z 2200/2224 30015KT 9999 BKN020 PROB30 TEMPO 2200/2202 32022KT -SHRA BECMG 2201/2203 33018KT BECMG 2212/2214 02015KT

超过4000个机场的气象观测和天气预报(METAR&TAF报告)。

可查询的气象台以黄色和红色小点在地图上表示。

将鼠标移到小点上方,可查看气象台名称。

然后点击查看天气观测和预报。

如需切换地图:点击带黑十字的绿色按钮放大地图;点击带横线的绿色按钮缩小地图;或者点击绿色箭头查看邻近地区的地图。


METAR-TAF: